sensor_id;sensor_type;location;lat;lon;timestamp;pressure;altitude;pressure_sealevel;temperature;humidity
14594;BME280;7383;52.354;9.756;2023-03-20T00:37:21;-12691.53;;;13.59;100.00
14594;BME280;7383;52.354;9.756;2023-03-20T00:58:12;-12691.44;;;13.59;100.00
14594;BME280;7383;52.354;9.756;2023-03-20T01:04:11;-12690.84;;;13.55;100.00
14594;BME280;7383;52.354;9.756;2023-03-20T01:06:44;-12691.44;;;13.59;100.00
14594;BME280;7383;52.354;9.756;2023-03-20T01:09:14;-12691.63;;;13.60;100.00
14594;BME280;7383;52.354;9.756;2023-03-20T01:11:43;-12692.47;;;13.65;100.00
14594;BME280;7383;52.354;9.756;2023-03-20T01:14:14;-12693.19;;;13.69;100.00
14594;BME280;7383;52.354;9.756;2023-03-20T01:20:14;-12692.13;;;13.63;100.00
14594;BME280;7383;52.354;9.756;2023-03-20T01:45:19;-12691.34;;;13.58;100.00
14594;BME280;7383;52.354;9.756;2023-03-20T01:47:47;-12690.66;;;13.54;100.00
14594;BME280;7383;52.354;9.756;2023-03-20T01:50:26;-12688.66;;;13.43;100.00
14594;BME280;7383;52.354;9.756;2023-03-20T01:53:08;-12685.72;;;13.25;100.00
14594;BME280;7383;52.354;9.756;2023-03-20T01:55:37;-12685.28;;;13.23;100.00
14594;BME280;7383;52.354;9.756;2023-03-20T01:58:07;-12685.88;;;13.26;100.00
14594;BME280;7383;52.354;9.756;2023-03-20T02:00:46;-12686.22;;;13.28;100.00
14594;BME280;7383;52.354;9.756;2023-03-20T02:03:14;-12685.63;;;13.25;100.00
14594;BME280;7383;52.354;9.756;2023-03-20T02:05:42;-12685.72;;;13.25;100.00
14594;BME280;7383;52.354;9.756;2023-03-20T02:08:21;-12684.41;;;13.18;100.00
14594;BME280;7383;52.354;9.756;2023-03-20T02:10:50;-12684.50;;;13.18;100.00
14594;BME280;7383;52.354;9.756;2023-03-20T02:13:17;-12684.56;;;13.19;100.00
14594;BME280;7383;52.354;9.756;2023-03-20T02:16:02;-12684.50;;;13.18;100.00
14594;BME280;7383;52.354;9.756;2023-03-20T02:18:29;-12682.31;;;13.06;100.00
14594;BME280;7383;52.354;9.756;2023-03-20T02:21:36;-12682.31;;;13.06;100.00
14594;BME280;7383;52.354;9.756;2023-03-20T02:24:31;-12682.22;;;13.05;100.00
14594;BME280;7383;52.354;9.756;2023-03-20T02:27:08;-12681.69;;;13.02;100.00
14594;BME280;7383;52.354;9.756;2023-03-20T02:32:54;-12681.97;;;13.04;100.00
14594;BME280;7383;52.354;9.756;2023-03-20T02:36:03;-12681.78;;;13.03;100.00
14594;BME280;7383;52.354;9.756;2023-03-20T02:38:59;-12680.75;;;12.97;100.00
14594;BME280;7383;52.354;9.756;2023-03-20T02:41:34;-12681.00;;;12.98;100.00
14594;BME280;7383;52.354;9.756;2023-03-20T02:44:10;-12681.88;;;13.03;100.00
14594;BME280;7383;52.354;9.756;2023-03-20T02:46:50;-12682.41;;;13.06;100.00
14594;BME280;7383;52.354;9.756;2023-03-20T02:49:33;-12682.84;;;13.09;100.00
14594;BME280;7383;52.354;9.756;2023-03-20T02:58:41;-12681.00;;;12.98;100.00
14594;BME280;7383;52.354;9.756;2023-03-20T03:01:26;-12680.84;;;12.97;100.00
14594;BME280;7383;52.354;9.756;2023-03-20T03:04:22;-12680.41;;;12.95;100.00
14594;BME280;7383;52.354;9.756;2023-03-20T03:06:56;-12679.44;;;12.89;100.00
14594;BME280;7383;52.354;9.756;2023-03-20T03:09:37;-12680.03;;;12.93;100.00
14594;BME280;7383;52.354;9.756;2023-03-20T03:12:13;-12679.69;;;12.91;100.00
14594;BME280;7383;52.354;9.756;2023-03-20T03:17:19;-12679.25;;;12.88;100.00
14594;BME280;7383;52.354;9.756;2023-03-20T03:19:52;-12678.41;;;12.83;100.00
14594;BME280;7383;52.354;9.756;2023-03-20T03:22:30;-12677.59;;;12.78;100.00
14594;BME280;7383;52.354;9.756;2023-03-20T03:24:58;-12677.53;;;12.78;100.00
14594;BME280;7383;52.354;9.756;2023-03-20T03:27:27;-12678.03;;;12.81;100.00
14594;BME280;7383;52.354;9.756;2023-03-20T03:47:11;-12677.19;;;12.76;100.00
14594;BME280;7383;52.354;9.756;2023-03-20T03:49:43;-12675.97;;;12.69;100.00
14594;BME280;7383;52.354;9.756;2023-03-20T03:53:05;-12675.53;;;12.66;100.00
14594;BME280;7383;52.354;9.756;2023-03-20T03:55:20;-12675.19;;;12.64;100.00
14594;BME280;7383;52.354;9.756;2023-03-20T03:57:56;-12674.66;;;12.61;100.00
14594;BME280;7383;52.354;9.756;2023-03-20T04:00:33;-12675.09;;;12.64;100.00
14594;BME280;7383;52.354;9.756;2023-03-20T04:03:03;-12674.56;;;12.61;100.00
14594;BME280;7383;52.354;9.756;2023-03-20T04:05:35;-12674.66;;;12.61;100.00
14594;BME280;7383;52.354;9.756;2023-03-20T04:08:15;-12674.66;;;12.61;100.00
14594;BME280;7383;52.354;9.756;2023-03-20T04:11:07;-12675.25;;;12.65;100.00
14594;BME280;7383;52.354;9.756;2023-03-20T05:01:30;-12674.13;;;12.58;100.00
14594;BME280;7383;52.354;9.756;2023-03-20T05:04:01;-12674.66;;;12.61;100.00
14594;BME280;7383;52.354;9.756;2023-03-20T05:06:28;-12673.78;;;12.56;100.00
14594;BME280;7383;52.354;9.756;2023-03-20T05:08:56;-12673.59;;;12.55;100.00
14594;BME280;7383;52.354;9.756;2023-03-20T05:11:25;-12673.88;;;12.57;100.00
14594;BME280;7383;52.354;9.756;2023-03-20T05:13:53;-12674.13;;;12.58;100.00
14594;BME280;7383;52.354;9.756;2023-03-20T05:16:20;-12674.75;;;12.62;100.00
14594;BME280;7383;52.354;9.756;2023-03-20T05:18:48;-12674.03;;;12.58;100.00
14594;BME280;7383;52.354;9.756;2023-03-20T05:21:14;-12673.97;;;12.57;100.00
14594;BME280;7383;52.354;9.756;2023-03-20T05:23:41;-12673.88;;;12.57;100.00
14594;BME280;7383;52.354;9.756;2023-03-20T05:26:11;-12674.22;;;12.59;100.00
14594;BME280;7383;52.354;9.756;2023-03-20T05:28:40;-12675.00;;;12.63;100.00
14594;BME280;7383;52.354;9.756;2023-03-20T05:31:30;-12675.97;;;12.69;100.00
14594;BME280;7383;52.354;9.756;2023-03-20T05:33:58;-12676.81;;;12.74;100.00
14594;BME280;7383;52.354;9.756;2023-03-20T05:36:25;-12676.38;;;12.71;100.00
14594;BME280;7383;52.354;9.756;2023-03-20T05:38:51;-12676.22;;;12.70;100.00
14594;BME280;7383;52.354;9.756;2023-03-20T05:41:19;-12675.97;;;12.69;100.00
14594;BME280;7383;52.354;9.756;2023-03-20T05:43:45;-12675.97;;;12.69;100.00
14594;BME280;7383;52.354;9.756;2023-03-20T05:46:12;-12674.75;;;12.62;100.00
14594;BME280;7383;52.354;9.756;2023-03-20T05:48:38;-12673.69;;;12.56;100.00
14594;BME280;7383;52.354;9.756;2023-03-20T05:51:06;-12674.13;;;12.58;100.00
14594;BME280;7383;52.354;9.756;2023-03-20T05:53:33;-12675.53;;;12.66;100.00
14594;BME280;7383;52.354;9.756;2023-03-20T05:56:02;-12674.81;;;12.62;100.00
14594;BME280;7383;52.354;9.756;2023-03-20T05:58:29;-12675.59;;;12.67;100.00
14594;BME280;7383;52.354;9.756;2023-03-20T06:00:56;-12675.78;;;12.68;100.00
14594;BME280;7383;52.354;9.756;2023-03-20T06:03:22;-12676.13;;;12.70;100.00
14594;BME280;7383;52.354;9.756;2023-03-20T06:05:49;-12675.53;;;12.66;100.00
14594;BME280;7383;52.354;9.756;2023-03-20T06:08:17;-12676.47;;;12.72;100.00
14594;BME280;7383;52.354;9.756;2023-03-20T06:10:43;-12675.69;;;12.67;100.00
14594;BME280;7383;52.354;9.756;2023-03-20T06:13:10;-12675.00;;;12.63;100.00
14594;BME280;7383;52.354;9.756;2023-03-20T06:15:36;-12675.00;;;12.63;100.00
14594;BME280;7383;52.354;9.756;2023-03-20T06:18:02;-12674.56;;;12.61;100.00
14594;BME280;7383;52.354;9.756;2023-03-20T06:20:29;-12674.38;;;12.60;100.00
14594;BME280;7383;52.354;9.756;2023-03-20T06:22:56;-12674.91;;;12.63;100.00
14594;BME280;7383;52.354;9.756;2023-03-20T06:25:24;-12674.75;;;12.62;100.00
14594;BME280;7383;52.354;9.756;2023-03-20T06:27:50;-12674.81;;;12.62;100.00
14594;BME280;7383;52.354;9.756;2023-03-20T06:30:17;-12675.44;;;12.66;100.00
14594;BME280;7383;52.354;9.756;2023-03-20T06:32:44;-12675.78;;;12.68;100.00
14594;BME280;7383;52.354;9.756;2023-03-20T06:35:12;-12676.03;;;12.69;100.00
14594;BME280;7383;52.354;9.756;2023-03-20T06:37:39;-12676.47;;;12.72;100.00
14594;BME280;7383;52.354;9.756;2023-03-20T06:40:07;-12676.81;;;12.74;100.00
14594;BME280;7383;52.354;9.756;2023-03-20T06:42:35;-12676.47;;;12.72;100.00
14594;BME280;7383;52.354;9.756;2023-03-20T06:45:02;-12676.66;;;12.73;100.00
14594;BME280;7383;52.354;9.756;2023-03-20T06:47:28;-12675.97;;;12.69;100.00
14594;BME280;7383;52.354;9.756;2023-03-20T06:49:55;-12676.13;;;12.70;100.00
14594;BME280;7383;52.354;9.756;2023-03-20T06:52:21;-12675.25;;;12.65;100.00
14594;BME280;7383;52.354;9.756;2023-03-20T06:54:49;-12675.34;;;12.65;100.00
14594;BME280;7383;52.354;9.756;2023-03-20T06:57:16;-12674.38;;;12.60;100.00
14594;BME280;7383;52.354;9.756;2023-03-20T06:59:44;-12673.78;;;12.56;100.00
14594;BME280;7383;52.354;9.756;2023-03-20T07:02:10;-12674.38;;;12.60;100.00
14594;BME280;7383;52.354;9.756;2023-03-20T07:07:06;-12674.31;;;12.59;100.00
14594;BME280;7383;52.354;9.756;2023-03-20T07:09:33;-12674.03;;;12.58;100.00
14594;BME280;7383;52.354;9.756;2023-03-20T07:12:01;-12674.91;;;12.63;100.00
14594;BME280;7383;52.354;9.756;2023-03-20T07:14:29;-12674.22;;;12.59;100.00
14594;BME280;7383;52.354;9.756;2023-03-20T07:16:56;-12674.13;;;12.58;100.00
14594;BME280;7383;52.354;9.756;2023-03-20T07:19:23;-12675.09;;;12.64;100.00
14594;BME280;7383;52.354;9.756;2023-03-20T07:21:51;-12675.78;;;12.68;100.00
14594;BME280;7383;52.354;9.756;2023-03-20T07:24:19;-12676.81;;;12.74;100.00
14594;BME280;7383;52.354;9.756;2023-03-20T07:26:46;-12677.69;;;12.79;100.00
14594;BME280;7383;52.354;9.756;2023-03-20T07:29:12;-12678.47;;;12.83;100.00
14594;BME280;7383;52.354;9.756;2023-03-20T07:31:39;-12679.00;;;12.87;100.00
14594;BME280;7383;52.354;9.756;2023-03-20T07:34:06;-12678.22;;;12.82;100.00
14594;BME280;7383;52.354;9.756;2023-03-20T07:36:33;-12675.69;;;12.67;100.00
14594;BME280;7383;52.354;9.756;2023-03-20T07:38:59;-12674.81;;;12.62;100.00
14594;BME280;7383;52.354;9.756;2023-03-20T07:41:26;-12675.69;;;12.67;100.00
14594;BME280;7383;52.354;9.756;2023-03-20T07:43:53;-12676.03;;;12.69;100.00
14594;BME280;7383;52.354;9.756;2023-03-20T07:46:19;-12677.09;;;12.75;100.00
14594;BME280;7383;52.354;9.756;2023-03-20T07:48:46;-12677.69;;;12.79;100.00
14594;BME280;7383;52.354;9.756;2023-03-20T07:51:13;-12677.78;;;12.79;100.00
14594;BME280;7383;52.354;9.756;2023-03-20T07:53:40;-12678.03;;;12.81;100.00
14594;BME280;7383;52.354;9.756;2023-03-20T07:56:07;-12678.56;;;12.84;100.00
14594;BME280;7383;52.354;9.756;2023-03-20T07:58:36;-12677.59;;;12.78;100.00
14594;BME280;7383;52.354;9.756;2023-03-20T08:01:03;-12677.97;;;12.80;100.00
14594;BME280;7383;52.354;9.756;2023-03-20T08:03:30;-12677.09;;;12.75;100.00
14594;BME280;7383;52.354;9.756;2023-03-20T08:05:56;-12677.88;;;12.80;100.00
14594;BME280;7383;52.354;9.756;2023-03-20T08:08:24;-12679.63;;;12.90;100.00
14594;BME280;7383;52.354;9.756;2023-03-20T08:10:51;-12680.75;;;12.97;100.00
14594;BME280;7383;52.354;9.756;2023-03-20T08:13:17;-12682.13;;;13.05;100.00
14594;BME280;7383;52.354;9.756;2023-03-20T08:15:45;-12682.06;;;13.04;100.00
14594;BME280;7383;52.354;9.756;2023-03-20T08:18:12;-12682.66;;;13.08;100.00
14594;BME280;7383;52.354;9.756;2023-03-20T08:20:38;-12682.06;;;13.04;100.00
14594;BME280;7383;52.354;9.756;2023-03-20T08:23:05;-12681.34;;;13.00;100.00
14594;BME280;7383;52.354;9.756;2023-03-20T08:25:33;-12681.97;;;13.04;100.00
14594;BME280;7383;52.354;9.756;2023-03-20T08:28:00;-12680.75;;;12.97;100.00
14594;BME280;7383;52.354;9.756;2023-03-20T08:30:26;-12680.31;;;12.94;100.00
14594;BME280;7383;52.354;9.756;2023-03-20T08:32:53;-12681.00;;;12.98;100.00
14594;BME280;7383;52.354;9.756;2023-03-20T08:35:20;-12680.13;;;12.93;100.00
14594;BME280;7383;52.354;9.756;2023-03-20T08:37:46;-12679.25;;;12.88;100.00
14594;BME280;7383;52.354;9.756;2023-03-20T08:40:15;-12679.09;;;12.87;100.00
14594;BME280;7383;52.354;9.756;2023-03-20T08:42:43;-12679.88;;;12.92;100.00
14594;BME280;7383;52.354;9.756;2023-03-20T08:45:10;-12680.47;;;12.95;100.00
14594;BME280;7383;52.354;9.756;2023-03-20T08:47:37;-12679.34;;;12.89;100.00
14594;BME280;7383;52.354;9.756;2023-03-20T08:50:04;-12679.88;;;12.92;100.00
14594;BME280;7383;52.354;9.756;2023-03-20T08:52:34;-12679.88;;;12.92;100.00
14594;BME280;7383;52.354;9.756;2023-03-20T08:55:02;-12679.97;;;12.92;100.00
14594;BME280;7383;52.354;9.756;2023-03-20T08:57:29;-12680.13;;;12.93;100.00
14594;BME280;7383;52.354;9.756;2023-03-20T08:59:56;-12681.69;;;13.02;100.00
14594;BME280;7383;52.354;9.756;2023-03-20T09:02:23;-12680.91;;;12.98;100.00
14594;BME280;7383;52.354;9.756;2023-03-20T09:04:53;-12679.88;;;12.92;100.00
14594;BME280;7383;52.354;9.756;2023-03-20T09:07:26;-12680.75;;;12.97;100.00
14594;BME280;7383;52.354;9.756;2023-03-20T09:09:52;-12680.22;;;12.94;100.00
14594;BME280;7383;52.354;9.756;2023-03-20T09:12:21;-12680.56;;;12.96;100.00
14594;BME280;7383;52.354;9.756;2023-03-20T09:14:47;-12679.25;;;12.88;100.00
14594;BME280;7383;52.354;9.756;2023-03-20T09:20:26;-12678.81;;;12.86;100.00
14594;BME280;7383;52.354;9.756;2023-03-20T09:22:52;-12678.81;;;12.86;100.00
14594;BME280;7383;52.354;9.756;2023-03-20T09:25:23;-12679.97;;;12.92;100.00
14594;BME280;7383;52.354;9.756;2023-03-20T09:28:06;-12681.19;;;12.99;100.00
14594;BME280;7383;52.354;9.756;2023-03-20T09:30:35;-12680.84;;;12.97;100.00
14594;BME280;7383;52.354;9.756;2023-03-20T09:33:05;-12680.56;;;12.96;100.00
14594;BME280;7383;52.354;9.756;2023-03-20T09:35:48;-12680.13;;;12.93;100.00
14594;BME280;7383;52.354;9.756;2023-03-20T09:38:15;-12679.78;;;12.91;100.00
14594;BME280;7383;52.354;9.756;2023-03-20T09:40:50;-12680.75;;;12.97;100.00
14594;BME280;7383;52.354;9.756;2023-03-20T09:52:51;-12678.56;;;12.84;100.00
14594;BME280;7383;52.354;9.756;2023-03-20T09:55:35;-12680.13;;;12.93;100.00
14594;BME280;7383;52.354;9.756;2023-03-20T10:01:49;-12685.53;;;13.24;100.00
14594;BME280;7383;52.354;9.756;2023-03-20T10:04:17;-12687.78;;;13.38;100.00
14594;BME280;7383;52.354;9.756;2023-03-20T10:06:44;-12687.09;;;13.34;100.00
14594;BME280;7383;52.354;9.756;2023-03-20T10:09:14;-12688.22;;;13.40;100.00
14594;BME280;7383;52.354;9.756;2023-03-20T10:12:13;-12687.19;;;13.34;100.00
14594;BME280;7383;52.354;9.756;2023-03-20T10:15:06;-12684.06;;;13.16;100.00
14594;BME280;7383;52.354;9.756;2023-03-20T10:17:52;-12683.97;;;13.15;100.00
14594;BME280;7383;52.354;9.756;2023-03-20T10:20:27;-12683.63;;;13.13;100.00
14594;BME280;7383;52.354;9.756;2023-03-20T10:22:58;-12683.53;;;13.13;100.00
14594;BME280;7383;52.354;9.756;2023-03-20T10:25:36;-12684.75;;;13.20;100.00
14594;BME280;7383;52.354;9.756;2023-03-20T10:28:13;-12686.66;;;13.31;100.00
14594;BME280;7383;52.354;9.756;2023-03-20T10:30:53;-12689.00;;;13.45;100.00
14594;BME280;7383;52.354;9.756;2023-03-20T10:33:37;-12688.66;;;13.43;100.00
14594;BME280;7383;52.354;9.756;2023-03-20T10:36:17;-12690.06;;;13.51;100.00
14594;BME280;7383;52.354;9.756;2023-03-20T10:38:55;-12690.91;;;13.56;100.00
14594;BME280;7383;52.354;9.756;2023-03-20T10:41:32;-12691.28;;;13.58;100.00
14594;BME280;7383;52.354;9.756;2023-03-20T10:44:01;-12691.44;;;13.59;100.00
14594;BME280;7383;52.354;9.756;2023-03-20T10:46:32;-12692.41;;;13.64;100.00
14594;BME280;7383;52.354;9.756;2023-03-20T10:49:03;-12691.69;;;13.60;100.00
14594;BME280;7383;52.354;9.756;2023-03-20T10:51:38;-12691.44;;;13.59;100.00
14594;BME280;7383;52.354;9.756;2023-03-20T10:54:14;-12692.13;;;13.63;100.00
14594;BME280;7383;52.354;9.756;2023-03-20T10:56:46;-12693.88;;;13.73;100.00
14594;BME280;7383;52.354;9.756;2023-03-20T10:59:21;-12695.09;;;13.80;100.00
14594;BME280;7383;52.354;9.756;2023-03-20T11:01:48;-12695.34;;;13.82;100.00
14594;BME280;7383;52.354;9.756;2023-03-20T11:04:14;-12695.69;;;13.84;100.00
14594;BME280;7383;52.354;9.756;2023-03-20T11:06:45;-12695.28;;;13.81;100.00
14594;BME280;7383;52.354;9.756;2023-03-20T11:09:17;-12695.44;;;13.82;100.00
14594;BME280;7383;52.354;9.756;2023-03-20T11:11:46;-12697.09;;;13.92;100.00
14594;BME280;7383;52.354;9.756;2023-03-20T11:14:16;-12700.31;;;14.10;100.00
14594;BME280;7383;52.354;9.756;2023-03-20T11:16:46;-12702.31;;;14.22;100.00
14594;BME280;7383;52.354;9.756;2023-03-20T11:19:14;-12703.09;;;14.26;100.00
14594;BME280;7383;52.354;9.756;2023-03-20T11:21:47;-12701.78;;;14.19;100.00
14594;BME280;7383;52.354;9.756;2023-03-20T11:24:25;-12700.13;;;14.09;100.00
14594;BME280;7383;52.354;9.756;2023-03-20T11:26:54;-12698.03;;;13.97;100.00
14594;BME280;7383;52.354;9.756;2023-03-20T11:29:30;-12696.03;;;13.86;100.00
14594;BME280;7383;52.354;9.756;2023-03-20T11:32:04;-12692.56;;;13.65;100.00
14594;BME280;7383;52.354;9.756;2023-03-20T11:34:35;-12688.22;;;13.40;100.00
14594;BME280;7383;52.354;9.756;2023-03-20T11:37:06;-12688.84;;;13.44;100.00
14594;BME280;7383;52.354;9.756;2023-03-20T11:39:53;-12690.91;;;13.56;100.00
14594;BME280;7383;52.354;9.756;2023-03-20T11:42:25;-12694.22;;;13.75;100.00
14594;BME280;7383;52.354;9.756;2023-03-20T11:44:58;-12697.00;;;13.91;100.00
14594;BME280;7383;52.354;9.756;2023-03-20T11:47:26;-12698.91;;;14.02;100.00
14594;BME280;7383;52.354;9.756;2023-03-20T11:49:55;-12701.88;;;14.19;100.00
14594;BME280;7383;52.354;9.756;2023-03-20T11:52:24;-12705.88;;;14.43;100.00
14594;BME280;7383;52.354;9.756;2023-03-20T11:54:54;-12704.03;;;14.32;100.00
14594;BME280;7383;52.354;9.756;2023-03-20T11:57:34;-12704.47;;;14.35;100.00
14594;BME280;7383;52.354;9.756;2023-03-20T12:00:04;-12706.91;;;14.49;100.00
14594;BME280;7383;52.354;9.756;2023-03-20T12:02:33;-12712.03;;;14.78;100.00
14594;BME280;7383;52.354;9.756;2023-03-20T12:05:17;-12716.09;;;15.02;100.00
14594;BME280;7383;52.354;9.756;2023-03-20T12:07:45;-12718.09;;;15.14;100.00
14594;BME280;7383;52.354;9.756;2023-03-20T12:10:14;-12720.78;;;15.30;100.00
14594;BME280;7383;52.354;9.756;2023-03-20T12:12:48;-12727.47;;;15.68;100.00
14594;BME280;7383;52.354;9.756;2023-03-20T12:15:21;-12729.97;;;15.83;100.00
14594;BME280;7383;52.354;9.756;2023-03-20T12:17:53;-12728.84;;;15.77;100.00
14594;BME280;7383;52.354;9.756;2023-03-20T12:20:31;-12725.13;;;15.55;100.00
14594;BME280;7383;52.354;9.756;2023-03-20T12:23:05;-12721.91;;;15.36;100.00
14594;BME280;7383;52.354;9.756;2023-03-20T12:25:38;-12716.97;;;15.07;100.00
14594;BME280;7383;52.354;9.756;2023-03-20T12:28:13;-12711.41;;;14.75;100.00
14594;BME280;7383;52.354;9.756;2023-03-20T12:31:01;-12707.09;;;14.50;100.00
14594;BME280;7383;52.354;9.756;2023-03-20T12:33:39;-12703.00;;;14.26;100.00
14594;BME280;7383;52.354;9.756;2023-03-20T12:36:12;-12701.53;;;14.17;100.00
14594;BME280;7383;52.354;9.756;2023-03-20T12:38:40;-12701.09;;;14.15;100.00
14594;BME280;7383;52.354;9.756;2023-03-20T12:41:10;-12700.31;;;14.10;100.00
14594;BME280;7383;52.354;9.756;2023-03-20T12:43:46;-12702.03;;;14.20;100.00
14594;BME280;7383;52.354;9.756;2023-03-20T12:46:24;-12700.66;;;14.12;100.00
14594;BME280;7383;52.354;9.756;2023-03-20T12:48:58;-12698.41;;;13.99;100.00
14594;BME280;7383;52.354;9.756;2023-03-20T12:51:34;-12696.31;;;13.87;100.00
14594;BME280;7383;52.354;9.756;2023-03-20T12:54:13;-12696.47;;;13.88;100.00
14594;BME280;7383;52.354;9.756;2023-03-20T12:56:55;-12697.00;;;13.91;100.00
14594;BME280;7383;52.354;9.756;2023-03-20T12:59:35;-12699.09;;;14.03;100.00
14594;BME280;7383;52.354;9.756;2023-03-20T13:02:16;-12711.50;;;14.75;100.00
14594;BME280;7383;52.354;9.756;2023-03-20T13:05:02;-12735.78;;;16.17;100.00
14594;BME280;7383;52.354;9.756;2023-03-20T13:07:43;-12745.38;;;16.73;100.00
14594;BME280;7383;52.354;9.756;2023-03-20T13:10:20;-12759.63;;;17.56;100.00
14594;BME280;7383;52.354;9.756;2023-03-20T13:12:55;-12773.25;;;18.36;100.00
14594;BME280;7383;52.354;9.756;2023-03-20T13:15:39;-12789.38;;;19.31;100.00
14594;BME280;7383;52.354;9.756;2023-03-20T13:18:18;-12779.72;;;18.74;100.00
14594;BME280;7383;52.354;9.756;2023-03-20T13:20:50;-12764.47;;;17.85;100.00
14594;BME280;7383;52.354;9.756;2023-03-20T13:23:23;-12747.44;;;16.85;100.00
14594;BME280;7383;52.354;9.756;2023-03-20T13:26:10;-12740.19;;;16.43;100.00
14594;BME280;7383;52.354;9.756;2023-03-20T13:28:45;-12731.69;;;15.93;100.00
14594;BME280;7383;52.354;9.756;2023-03-20T13:31:23;-12726.41;;;15.62;100.00
14594;BME280;7383;52.354;9.756;2023-03-20T13:34:03;-12721.75;;;15.35;100.00
14594;BME280;7383;52.354;9.756;2023-03-20T13:36:43;-12719.81;;;15.24;100.00
14594;BME280;7383;52.354;9.756;2023-03-20T13:39:19;-12717.66;;;15.11;100.00
14594;BME280;7383;52.354;9.756;2023-03-20T13:41:48;-12715.84;;;15.01;100.00
14594;BME280;7383;52.354;9.756;2023-03-20T13:44:18;-12712.72;;;14.83;100.00
14594;BME280;7383;52.354;9.756;2023-03-20T13:46:49;-12711.75;;;14.77;100.00
14594;BME280;7383;52.354;9.756;2023-03-20T13:49:23;-12712.19;;;14.79;100.00
14594;BME280;7383;52.354;9.756;2023-03-20T13:52:01;-12710.56;;;14.70;100.00
14594;BME280;7383;52.354;9.756;2023-03-20T13:54:52;-12714.47;;;14.93;100.00
14594;BME280;7383;52.354;9.756;2023-03-20T13:57:33;-12716.63;;;15.05;100.00
14594;BME280;7383;52.354;9.756;2023-03-20T14:00:07;-12715.75;;;15.00;100.00
14594;BME280;7383;52.354;9.756;2023-03-20T14:03:00;-12712.63;;;14.82;100.00
14594;BME280;7383;52.354;9.756;2023-03-20T14:05:35;-12709.84;;;14.66;100.00
14594;BME280;7383;52.354;9.756;2023-03-20T14:08:28;-12707.78;;;14.54;100.00
14594;BME280;7383;52.354;9.756;2023-03-20T14:11:05;-12710.38;;;14.69;100.00
14594;BME280;7383;52.354;9.756;2023-03-20T14:13:33;-12728.50;;;15.74;100.00
14594;BME280;7383;52.354;9.756;2023-03-20T14:16:02;-12740.53;;;16.45;100.00
14594;BME280;7383;52.354;9.756;2023-03-20T14:18:30;-12749.34;;;16.96;100.00
14594;BME280;7383;52.354;9.756;2023-03-20T14:20:58;-12748.56;;;16.92;100.00
14594;BME280;7383;52.354;9.756;2023-03-20T14:23:34;-12739.41;;;16.38;100.00
14594;BME280;7383;52.354;9.756;2023-03-20T14:26:08;-12730.22;;;15.85;100.00
14594;BME280;7383;52.354;9.756;2023-03-20T14:29:00;-12725.22;;;15.55;100.00
14594;BME280;7383;52.354;9.756;2023-03-20T14:31:32;-12718.88;;;15.18;100.00
14594;BME280;7383;52.354;9.756;2023-03-20T14:34:16;-12714.88;;;14.95;100.00
14594;BME280;7383;52.354;9.756;2023-03-20T14:36:50;-12710.97;;;14.72;100.00
14594;BME280;7383;52.354;9.756;2023-03-20T14:39:39;-12709.59;;;14.64;100.00
14594;BME280;7383;52.354;9.756;2023-03-20T14:42:23;-12710.63;;;14.70;100.00
14594;BME280;7383;52.354;9.756;2023-03-20T14:45:07;-12709.06;;;14.61;100.00
14594;BME280;7383;52.354;9.756;2023-03-20T14:47:47;-12706.91;;;14.49;100.00
14594;BME280;7383;52.354;9.756;2023-03-20T14:50:21;-12705.78;;;14.42;100.00
14594;BME280;7383;52.354;9.756;2023-03-20T14:52:54;-12704.31;;;14.34;100.00
14594;BME280;7383;52.354;9.756;2023-03-20T14:55:31;-12703.59;;;14.29;100.00
14594;BME280;7383;52.354;9.756;2023-03-20T14:58:02;-12702.81;;;14.25;100.00
14594;BME280;7383;52.354;9.756;2023-03-20T15:00:34;-12701.88;;;14.19;100.00
14594;BME280;7383;52.354;9.756;2023-03-20T15:03:07;-12701.34;;;14.16;100.00
14594;BME280;7383;52.354;9.756;2023-03-20T15:05:39;-12701.53;;;14.17;100.00
14594;BME280;7383;52.354;9.756;2023-03-20T15:08:08;-12700.66;;;14.12;100.00
14594;BME280;7383;52.354;9.756;2023-03-20T15:10:45;-12699.09;;;14.03;100.00
14594;BME280;7383;52.354;9.756;2023-03-20T15:13:14;-12698.56;;;14.00;100.00
14594;BME280;7383;52.354;9.756;2023-03-20T15:19:17;-12697.69;;;13.95;100.00
14594;BME280;7383;52.354;9.756;2023-03-20T15:21:47;-12696.75;;;13.90;100.00
14594;BME280;7383;52.354;9.756;2023-03-20T15:24:19;-12696.41;;;13.88;100.00
14594;BME280;7383;52.354;9.756;2023-03-20T15:26:53;-12696.84;;;13.90;100.00
14594;BME280;7383;52.354;9.756;2023-03-20T15:29:25;-12695.19;;;13.80;100.00
14594;BME280;7383;52.354;9.756;2023-03-20T15:31:54;-12695.09;;;13.80;100.00
14594;BME280;7383;52.354;9.756;2023-03-20T15:34:24;-12695.44;;;13.82;100.00
14594;BME280;7383;52.354;9.756;2023-03-20T15:36:54;-12694.84;;;13.78;100.00
14594;BME280;7383;52.354;9.756;2023-03-20T15:39:24;-12694.06;;;13.74;100.00
14594;BME280;7383;52.354;9.756;2023-03-20T15:41:52;-12693.69;;;13.72;100.00
14594;BME280;7383;52.354;9.756;2023-03-20T15:44:22;-12693.44;;;13.70;100.00
14594;BME280;7383;52.354;9.756;2023-03-20T15:46:55;-12693.44;;;13.70;100.00
14594;BME280;7383;52.354;9.756;2023-03-20T15:49:23;-12693.09;;;13.68;100.00
14594;BME280;7383;52.354;9.756;2023-03-20T15:51:50;-12693.34;;;13.70;100.00
14594;BME280;7383;52.354;9.756;2023-03-20T15:54:19;-12693.97;;;13.73;100.00
14594;BME280;7383;52.354;9.756;2023-03-20T15:56:50;-12693.00;;;13.68;100.00
14594;BME280;7383;52.354;9.756;2023-03-20T15:59:25;-12692.06;;;13.62;100.00
14594;BME280;7383;52.354;9.756;2023-03-20T16:01:58;-12691.53;;;13.59;100.00
14594;BME280;7383;52.354;9.756;2023-03-20T16:04:31;-12691.09;;;13.57;100.00
14594;BME280;7383;52.354;9.756;2023-03-20T16:06:59;-12690.56;;;13.54;100.00
14594;BME280;7383;52.354;9.756;2023-03-20T16:09:28;-12689.78;;;13.49;100.00
14594;BME280;7383;52.354;9.756;2023-03-20T16:12:02;-12689.44;;;13.47;100.00
14594;BME280;7383;52.354;9.756;2023-03-20T16:14:30;-12688.84;;;13.44;100.00
14594;BME280;7383;52.354;9.756;2023-03-20T16:16:59;-12689.00;;;13.45;100.00
14594;BME280;7383;52.354;9.756;2023-03-20T16:19:27;-12689.44;;;13.47;100.00
14594;BME280;7383;52.354;9.756;2023-03-20T16:21:59;-12691.53;;;13.59;100.00